Chalk, Texas
Current Conditions -  °F | °C
As of 12:53 PM on Monday 22 Dec 2014 (Local Time) from KCDS Reporting Station
Broken Clouds Broken Clouds  
Wind Chill: 14°   Ceiling: 10000
Heat Index: 14°   Visibility: 10mi
Dew Point: -1°   Wind: 17mph
Humidity: 36%   Direction: 340°NNW
Pressure: 29.7"   Gusts: NA
Location:  33.87°N, 100.22°W
Report Text: KCDS 221853Z AUTO 34015KT 10SM BKN100 14/M01 A2970 RMK AO2 SLP051 T01391011
Loading
Personal Weather Stations






























Interactive Weather Map New forecast layout! Learn more

10-Day Weather Forecast

Advertisements
Track Severe Weather on mobile